Three Rivers, TX (78071)

5:22 PM CST on December 17, 2014 (GMT -0600)
Sunset Villas | Change Station
CLOSE
Current Station
Personal Weather Station
Location: Mathis, TX
Elevation: 120 ft
Nearby Weather Stations

Elev 120 ft 28.20 °N, 97.90 °W | Updated 25 seconds ago

Overcast
Overcast
72.6 °F
Feels Like 74 °F
N
3.1
Wind Variable Wind from SSW
Gusts 8.1 mph

Today
High -- | Low -- °F
--% Chance of Precip.
Yesterday
High -- | Low -- °F
Precip. -- in
7:18 AM 5:39 PM
Waning Crescent, 19% visible
Pressure 29.98 in
Visibility 10.0 miles
Clouds Scattered Clouds 3800 ft
Mostly Cloudy 4500 ft
Heat Index 74 °F
Dew Point 65 °F
Humidity 76%
Rainfall 0.00 in
Snow Depth Not available.
UV 0 out of 12
Pollen 7.10 out of 12
Air Quality Not available.
Flu Activity Not available.
METAR KBEA 172315Z AUTO 14010G19KT 10SM SCT038 BKN045 22/18 A2998 RMK AO2 T02150177

More Conditions Fewer Conditions

Pressure 29.98 in
Visibility 10.0 miles
Clouds Scattered Clouds 3800 ft
Mostly Cloudy 4500 ft
Heat Index 74 °F
Dew Point 65 °F
Humidity 76%
Rainfall 0.00 in
Snow Depth Not available.
UV 0 out of 12
Pollen 7.10 out of 12
Air Quality Not available.
Flu Activity Not available.
METAR KBEA 172315Z AUTO 14010G19KT 10SM SCT038 BKN045 22/18 A2998 RMK AO2 T02150177

More Conditions Fewer Conditions

10-Day Weather Forecast

Almanac

Astronomy

Dec. 17, 2014 Rise Set
Actual Time
Civil Twilight
Nautical Twilight
Astronomical Twilight
Moon
Length of Visible Light
Length of Day
Tomorrow will be .
, % of the Moon is Illuminated

Today's Extremes

State Highs State Lows

Community

WunderPhotos

Upload Photos

1,778,823 photos uploaded!

WunderBlogs® & News

Nearby

Air Quality

  Air Quality AQ Index Pollutant
Not available.

Snow Depth

Station Depth Elevation

Earthquake Activity

City Distance Mag. Time & Date
Minimum magnitude displayed is 2.5.

Coastal Water Temperatures

Place Temperature

Nearby Weather Stations